Time;durP1;ratioP1;P1;durP2;ratioP2;P2;SDS_P1;SDS_P2;PMS_P1;PMS_P2;Temp;Humidity;BMP_temperature;BMP_pressure;BME280_temperature;BME280_humidity;BME280_pressure;Samples;Min_cycle;Max_cycle;Signal;HPM_P1;HPM_P2
2024/01/30 00:00:55;;;;;;;11.88;5.95;;;;;;;9.08;49.50;102599.34;4949284;28;99252;-76
2024/01/30 00:03:22;;;;;;;13.90;6.22;;;;;;;9.09;49.65;102602.88;4950129;28;99342;-77
2024/01/30 00:05:49;;;;;;;11.85;6.22;;;;;;;8.97;50.15;102601.09;4948560;28;99985;-76
2024/01/30 00:08:15;;;;;;;9.70;5.15;;;;;;;9.13;49.80;102601.97;4950524;28;97579;-76
2024/01/30 00:10:42;;;;;;;12.20;5.90;;;;;;;9.17;49.35;102599.34;4947440;28;99072;-76
2024/01/30 00:13:08;;;;;;;9.15;5.13;;;;;;;9.25;49.20;102601.13;4947590;28;98856;-76
2024/01/30 00:15:35;;;;;;;17.25;6.22;;;;;;;9.19;49.78;102599.31;4950619;28;97290;-76
2024/01/30 00:18:02;;;;;;;13.40;5.57;;;;;;;9.15;49.52;102603.75;4950081;28;98417;-76
2024/01/30 00:20:29;;;;;;;14.38;5.93;;;;;;;9.13;49.70;102608.13;4948285;28;98926;-76
2024/01/30 00:22:55;;;;;;;14.52;6.28;;;;;;;9.13;49.55;102605.50;4949737;28;101061;-76
2024/01/30 00:25:21;;;;;;;;;;;;;;;9.06;49.78;102602.84;4948365;28;97053;-70
2024/01/30 00:27:47;;;;;;;12.40;5.70;;;;;;;9.00;49.85;102606.38;4950006;28;97642;-71
2024/01/30 00:30:15;;;;;;;13.45;6.10;;;;;;;8.98;49.63;102597.59;4950695;28;98148;-70
2024/01/30 00:32:41;;;;;;;11.77;5.72;;;;;;;8.98;49.88;102604.63;4947102;28;98180;-71
2024/01/30 00:35:09;;;;;;;14.35;6.18;;;;;;;8.90;50.02;102603.72;4951271;28;99410;-70
2024/01/30 00:37:37;;;;;;;13.60;6.88;;;;;;;9.00;49.82;102600.22;4951744;28;98104;-77
2024/01/30 00:40:05;;;;;;;13.13;5.88;;;;;;;8.95;49.81;102594.06;4951387;28;100119;-71
2024/01/30 00:42:32;;;;;;;11.90;5.53;;;;;;;8.97;50.25;102598.47;4950739;28;99014;-77
2024/01/30 00:44:59;;;;;;;15.40;6.63;;;;;;;8.97;49.90;102594.94;4952139;28;97357;-72
2024/01/30 00:47:25;;;;;;;11.05;5.80;;;;;;;8.99;49.93;102595.84;4953748;28;96796;-71
2024/01/30 00:49:52;;;;;;;8.27;5.18;;;;;;;8.82;50.28;102587.91;4952377;28;98910;-72
2024/01/30 00:52:18;;;;;;;16.48;6.53;;;;;;;8.83;50.24;102592.31;4951277;28;99044;-72
2024/01/30 00:54:46;;;;;;;11.40;5.90;;;;;;;8.67;51.11;102590.50;4949607;28;96926;-72
2024/01/30 00:57:12;;;;;;;12.05;6.25;;;;;;;8.72;50.63;102586.16;4953022;28;97103;-71
2024/01/30 00:59:39;;;;;;;13.25;6.13;;;;;;;8.86;50.42;102592.28;4952000;28;99271;-71
2024/01/30 01:02:05;;;;;;;13.18;5.63;;;;;;;8.82;50.74;102593.19;4953435;28;98836;-71
2024/01/30 01:04:31;;;;;;;15.18;6.18;;;;;;;8.76;50.75;102591.41;4950204;28;96795;-72
2024/01/30 01:06:58;;;;;;;13.88;5.65;;;;;;;8.86;50.52;102602.00;4951725;28;97525;-71
2024/01/30 01:09:24;;;;;;;11.60;5.65;;;;;;;8.92;50.24;102591.44;4952246;28;98808;-71
2024/01/30 01:11:52;;;;;;;11.45;6.28;;;;;;;8.94;50.08;102600.22;4951068;28;99529;-71
2024/01/30 01:14:18;;;;;;;14.80;5.80;;;;;;;8.93;49.78;102596.69;4951066;28;97662;-71
2024/01/30 01:16:45;;;;;;;13.15;5.40;;;;;;;8.93;50.40;102594.06;4953607;28;97097;-70
2024/01/30 01:19:11;;;;;;;13.48;6.82;;;;;;;8.91;50.21;102598.47;4949821;28;99416;-71
2024/01/30 01:21:38;;;;;;;14.00;5.95;;;;;;;8.79;50.73;102596.69;4951903;28;99109;-70
2024/01/30 01:24:05;;;;;;;16.98;5.50;;;;;;;8.70;50.91;102599.31;4952019;28;98739;-70
2024/01/30 01:26:31;;;;;;;11.77;5.90;;;;;;;8.92;50.62;102602.88;4950475;28;97055;-70
2024/01/30 01:28:59;;;;;;;14.68;6.15;;;;;;;8.78;50.48;102594.94;4955348;28;98911;-71
2024/01/30 01:31:29;;;;;;;9.80;5.68;;;;;;;8.68;50.91;102593.16;4949493;28;99067;-70
2024/01/30 01:33:55;;;;;;;20.00;6.45;;;;;;;8.74;50.80;102592.28;4951631;28;96793;-70
2024/01/30 01:36:22;;;;;;;12.55;5.70;;;;;;;8.63;51.03;102601.94;4946184;28;97299;-70
2024/01/30 01:38:48;;;;;;;12.95;5.95;;;;;;;8.89;50.71;102596.69;4949522;28;99334;-71
2024/01/30 01:41:14;;;;;;;15.32;6.38;;;;;;;8.71;50.82;102592.28;4945963;28;99205;-71
2024/01/30 01:43:41;;;;;;;12.55;5.53;;;;;;;8.65;51.21;102590.53;4951007;28;97155;-70
2024/01/30 01:46:09;;;;;;;15.23;5.88;;;;;;;8.58;51.30;102593.16;4949253;28;96757;-70
2024/01/30 01:48:37;;;;;;;11.48;6.05;;;;;;;8.58;51.63;102585.25;4954431;28;99001;-71
2024/01/30 01:51:03;;;;;;;10.98;5.47;;;;;;;8.58;52.07;102593.16;4949847;28;98017;-70
2024/01/30 01:53:30;;;;;;;11.68;5.70;;;;;;;8.50;51.47;102586.97;4948846;28;96796;-70
2024/01/30 01:55:57;;;;;;;13.23;5.55;;;;;;;8.62;51.47;102592.28;4950735;28;96890;-71
2024/01/30 01:58:29;;;;;;;14.25;6.28;;;;;;;8.49;51.83;102595.75;4951736;28;98861;-70
2024/01/30 02:00:57;;;;;;;15.75;6.13;;;;;;;8.63;51.57;102586.13;4952627;28;97747;-71
2024/01/30 02:03:25;;;;;;;13.85;6.13;;;;;;;8.74;51.11;102590.53;4947280;28;97122;-70
2024/01/30 02:05:51;;;;;;;12.10;6.15;;;;;;;8.69;51.55;102587.00;4950976;28;97884;-71
2024/01/30 02:08:18;;;;;;;13.65;5.80;;;;;;;8.73;51.03;102583.50;4954037;28;99429;-70
2024/01/30 02:10:44;;;;;;;13.18;5.68;;;;;;;8.63;51.72;102586.13;4952682;28;99240;-70
2024/01/30 02:13:11;;;;;;;12.32;5.88;;;;;;;8.47;51.99;102594.91;4947451;28;97242;-71
2024/01/30 02:15:37;;;;;;;11.35;5.78;;;;;;;8.61;51.87;102590.50;4950433;28;98300;-70
2024/01/30 02:18:04;;;;;;;11.95;5.82;;;;;;;8.69;51.70;102589.66;4951234;28;98888;-70
2024/01/30 02:20:33;;;;;;;11.32;5.95;;;;;;;8.44;52.24;102592.25;4948286;28;102124;-70
2024/01/30 02:23:02;;;;;;;13.68;6.53;;;;;;;8.57;51.75;102592.28;4950365;28;96996;-70
2024/01/30 02:25:32;;;;;;;14.43;6.38;;;;;;;8.58;52.08;102590.53;4949116;28;97119;-71
2024/01/30 02:27:58;;;;;;;14.70;6.18;;;;;;;8.63;51.69;102594.03;4954338;28;98941;-71
2024/01/30 02:30:25;;;;;;;14.43;5.85;;;;;;;8.56;51.81;102587.88;4950363;28;99272;-71
2024/01/30 02:32:51;;;;;;;11.57;5.70;;;;;;;8.67;52.12;102593.16;4946645;28;97044;-71
2024/01/30 02:35:18;;;;;;;14.00;6.15;;;;;;;8.52;51.83;102585.25;4951528;28;97369;-70
2024/01/30 02:37:44;;;;;;;14.20;5.78;;;;;;;8.61;51.92;102585.22;4953329;28;99584;-70
2024/01/30 02:40:12;;;;;;;17.88;6.38;;;;;;;8.44;52.39;102592.25;4950563;28;100875;-71
2024/01/30 02:42:38;;;;;;;13.18;6.47;;;;;;;8.61;52.15;102588.75;4950987;28;99043;-71
2024/01/30 02:45:05;;;;;;;12.38;6.05;;;;;;;8.57;52.55;102583.47;4950026;28;97314;-71
2024/01/30 02:47:32;;;;;;;12.35;5.78;;;;;;;8.52;52.30;102577.34;4948522;28;99262;-71
2024/01/30 02:49:58;;;;;;;16.52;6.85;;;;;;;8.46;52.71;102578.22;4949411;28;99368;-71
2024/01/30 02:52:25;;;;;;;21.65;7.32;;;;;;;8.27;53.16;102579.00;4949605;28;97031;-71
2024/01/30 02:54:51;;;;;;;11.27;6.32;;;;;;;8.40;53.01;102576.41;4950906;28;97131;-71
2024/01/30 02:57:19;;;;;;;10.48;5.85;;;;;;;8.62;52.50;102579.97;4952665;28;101081;-71
2024/01/30 02:59:45;;;;;;;8.93;5.20;;;;;;;8.56;52.63;102564.16;4949724;28;98924;-71
2024/01/30 03:02:11;;;;;;;13.68;6.05;;;;;;;8.33;53.00;102574.66;4947846;28;96854;-71
2024/01/30 03:04:38;;;;;;;13.48;6.13;;;;;;;8.51;52.66;102578.19;4947551;28;100204;-71
2024/01/30 03:07:05;;;;;;;13.35;5.57;;;;;;;8.52;52.63;102566.78;4951416;28;98981;-72
2024/01/30 03:09:31;;;;;;;11.48;5.85;;;;;;;8.46;52.82;102570.31;4950315;28;97611;-72
2024/01/30 03:11:57;;;;;;;13.57;6.95;;;;;;;8.32;53.12;102567.63;4947520;28;96800;-71
2024/01/30 03:14:26;;;;;;;15.75;6.28;;;;;;;8.51;52.80;102560.66;4950747;28;97899;-71
2024/01/30 03:16:52;;;;;;;13.60;6.18;;;;;;;8.49;53.25;102561.50;4949057;28;98960;-71
2024/01/30 03:19:19;;;;;;;13.23;6.97;;;;;;;8.38;53.32;102557.09;4951766;28;97873;-71
2024/01/30 03:21:45;;;;;;;12.95;6.05;;;;;;;8.32;53.43;102556.22;4949179;28;97042;-71
2024/01/30 03:24:11;;;;;;;15.57;6.45;;;;;;;8.39;53.23;102558.88;4951722;28;96853;-71
2024/01/30 03:26:38;;;;;;;14.38;6.47;;;;;;;8.38;53.11;102562.38;4949289;28;98915;-71
2024/01/30 03:29:04;;;;;;;11.95;6.25;;;;;;;8.24;53.64;102552.63;4950258;28;97458;-71
2024/01/30 03:31:32;;;;;;;12.50;6.22;;;;;;;8.32;53.72;102557.09;4947810;28;97061;-71
2024/01/30 03:33:58;;;;;;;13.05;6.60;;;;;;;8.34;53.45;102554.44;4950845;28;97512;-71
2024/01/30 03:36:25;;;;;;;11.45;6.07;;;;;;;8.06;54.44;102564.00;4948364;28;99316;-71
2024/01/30 03:38:51;;;;;;;15.02;6.20;;;;;;;8.24;53.93;102561.44;4949892;28;99089;-71
2024/01/30 03:41:17;;;;;;;13.80;6.57;;;;;;;8.04;54.47;102560.47;4946674;28;97004;-71
2024/01/30 03:43:44;;;;;;;13.43;5.95;;;;;;;8.20;54.04;102557.03;4951433;28;98559;-71
2024/01/30 03:46:12;;;;;;;13.07;7.05;;;;;;;8.22;54.04;102557.91;4948800;28;98975;-71
2024/01/30 03:48:40;;;;;;;11.15;5.88;;;;;;;8.08;54.42;102551.69;4953526;28;100647;-71
2024/01/30 03:51:06;;;;;;;16.15;6.85;;;;;;;8.19;54.09;102555.28;4948405;28;96779;-71
2024/01/30 03:53:33;;;;;;;11.35;5.95;;;;;;;8.13;54.59;102550.00;4949577;28;97560;-71
2024/01/30 03:55:59;;;;;;;13.00;6.40;;;;;;;8.19;54.55;102549.13;4951987;28;99120;-71
2024/01/30 03:58:25;;;;;;;12.65;6.65;;;;;;;8.18;54.50;102555.25;4950094;28;98800;-71
2024/01/30 04:00:52;;;;;;;14.50;6.80;;;;;;;8.10;54.72;102557.84;4944922;28;96842;-72
2024/01/30 04:03:18;;;;;;;13.57;6.82;;;;;;;8.28;54.41;102554.41;4948430;28;97660;-71
2024/01/30 04:05:46;;;;;;;16.48;6.47;;;;;;;8.18;54.26;102556.13;4949780;28;99771;-71
2024/01/30 04:08:12;;;;;;;14.90;6.60;;;;;;;8.02;55.03;102549.03;4952487;28;98593;-71
2024/01/30 04:10:39;;;;;;;11.80;6.00;;;;;;;8.16;54.89;102547.34;4952161;28;97403;-71
2024/01/30 04:13:05;;;;;;;15.55;7.10;;;;;;;8.10;55.05;102555.22;4951724;28;96995;-71
2024/01/30 04:15:32;;;;;;;14.98;6.10;;;;;;;8.05;55.07;102551.72;4954833;28;99459;-71
2024/01/30 04:17:59;;;;;;;13.98;6.60;;;;;;;8.02;55.29;102567.47;4953717;28;99189;-71
2024/01/30 04:20:26;;;;;;;13.57;6.63;;;;;;;7.91;55.50;102570.09;4954509;28;96877;-72
2024/01/30 04:22:53;;;;;;;13.05;6.45;;;;;;;7.86;55.85;102560.41;4950529;28;97264;-71
2024/01/30 04:25:20;;;;;;;12.52;6.05;;;;;;;8.12;55.15;102568.41;4952559;28;98886;-71
2024/01/30 04:27:46;;;;;;;15.68;6.68;;;;;;;8.07;55.32;102562.25;4952805;28;98732;-72
2024/01/30 04:30:13;;;;;;;14.88;6.25;;;;;;;8.09;55.40;102560.47;4952570;28;96757;-71
2024/01/30 04:32:39;;;;;;;14.07;6.32;;;;;;;8.05;55.61;102556.09;4951237;28;97971;-72
2024/01/30 04:35:06;;;;;;;14.27;6.43;;;;;;;8.14;55.55;102548.25;4951223;28;98921;-71
2024/01/30 04:37:33;;;;;;;13.68;6.93;;;;;;;7.98;55.64;102553.44;4950262;28;98970;-71
2024/01/30 04:40:00;;;;;;;14.52;6.80;;;;;;;7.91;56.26;102556.91;4955490;28;97112;-71
2024/01/30 04:42:27;;;;;;;17.70;6.45;;;;;;;8.12;55.55;102542.97;4951216;28;96920;-71
2024/01/30 04:44:53;;;;;;;14.60;5.97;;;;;;;8.04;55.80;102551.69;4952616;28;98899;-71
2024/01/30 04:47:19;;;;;;;13.43;5.90;;;;;;;7.93;56.16;102552.56;4951356;28;97647;-71
2024/01/30 04:49:46;;;;;;;14.75;6.47;;;;;;;8.16;55.20;102541.19;4951558;28;97801;-72
2024/01/30 04:52:12;;;;;;;14.18;6.57;;;;;;;8.03;55.62;102542.91;4949178;28;97100;-72
2024/01/30 04:54:38;;;;;;;14.13;6.10;;;;;;;8.13;55.48;102542.09;4953492;28;98910;-71
2024/01/30 04:57:09;;;;;;;12.48;6.30;;;;;;;7.98;55.50;102542.91;4952198;28;99212;-70
2024/01/30 04:59:35;;;;;;;14.27;6.03;;;;;;;8.03;55.98;102550.81;4952102;28;97203;-71
2024/01/30 05:02:02;;;;;;;15.73;7.05;;;;;;;8.02;55.73;102546.41;4952156;28;97237;-71
2024/01/30 05:04:28;;;;;;;14.10;6.45;;;;;;;8.12;55.50;102548.22;4954581;28;99082;-71
2024/01/30 05:06:55;;;;;;;13.63;6.43;;;;;;;8.06;55.74;102540.31;4949576;28;98105;-71
2024/01/30 05:09:22;;;;;;;14.88;7.00;;;;;;;8.20;55.25;102541.22;4948772;28;96815;-71
2024/01/30 05:11:48;;;;;;;14.43;6.70;;;;;;;8.15;55.07;102539.44;4952018;28;97935;-71
2024/01/30 05:14:16;;;;;;;11.85;5.65;;;;;;;8.16;54.97;102535.94;4950151;28;102154;-71
2024/01/30 05:16:46;;;;;;;11.13;5.93;;;;;;;8.17;54.99;102548.22;4949574;28;101593;-71
2024/01/30 05:19:13;;;;;;;11.07;6.35;;;;;;;7.99;55.83;102546.41;4952335;28;97013;-71
2024/01/30 05:21:39;;;;;;;12.40;5.93;;;;;;;8.02;55.83;102549.03;4949866;28;96991;-70
2024/01/30 05:24:06;;;;;;;11.13;6.13;;;;;;;8.06;55.71;102545.56;4950988;28;99773;-71
2024/01/30 05:26:34;;;;;;;9.70;6.53;;;;;;;7.96;56.09;102536.75;4951225;28;97029;-70
2024/01/30 05:29:00;;;;;;;12.32;6.18;;;;;;;7.97;56.13;102548.16;4952580;28;97069;-71
2024/01/30 05:31:28;;;;;;;14.00;6.65;;;;;;;7.96;56.12;102549.91;4946289;28;96826;-71
2024/01/30 05:33:55;;;;;;;19.15;6.28;;;;;;;7.98;56.00;102547.28;4949083;28;99012;-70
2024/01/30 05:36:21;;;;;;;12.43;6.22;;;;;;;8.02;55.67;102542.03;4950016;28;99204;-72
2024/01/30 05:38:48;;;;;;;14.13;6.45;;;;;;;7.90;56.18;102541.09;4951213;28;97187;-71
2024/01/30 05:41:14;;;;;;;14.75;7.20;;;;;;;7.82;56.30;102530.53;4951901;28;97277;-71
2024/01/30 05:43:41;;;;;;;13.57;6.25;;;;;;;7.85;56.45;102534.97;4948100;28;99184;-71
2024/01/30 05:46:07;;;;;;;13.43;6.25;;;;;;;7.73;56.53;102530.53;4951102;28;99217;-71
2024/01/30 05:48:35;;;;;;;13.55;6.47;;;;;;;7.87;56.32;102533.22;4952778;28;97235;-71
2024/01/30 05:51:01;;;;;;;13.77;6.13;;;;;;;7.91;56.17;102537.59;4950733;28;97061;-72
2024/01/30 05:53:28;;;;;;;16.90;6.53;;;;;;;7.78;56.97;102541.06;4954019;28;98874;-71
2024/01/30 05:55:54;;;;;;;17.45;6.43;;;;;;;7.81;56.67;102534.03;4948762;28;99329;-70
2024/01/30 05:58:21;;;;;;;14.50;6.68;;;;;;;7.77;56.29;102529.66;4949157;28;97578;-71
2024/01/30 06:00:47;;;;;;;13.60;6.45;;;;;;;7.70;56.65;102532.25;4951218;28;96915;-72
2024/01/30 06:03:14;;;;;;;14.77;6.72;;;;;;;7.85;56.38;102533.22;4951103;28;98279;-72
2024/01/30 06:05:42;;;;;;;14.43;6.30;;;;;;;7.86;56.08;102534.09;4950777;28;99805;-71
2024/01/30 06:08:08;;;;;;;14.25;6.18;;;;;;;8.00;55.87;102535.03;4951375;28;100556;-71
2024/01/30 06:10:35;;;;;;;12.23;6.15;;;;;;;7.98;55.96;102531.50;4949000;28;96870;-71
2024/01/30 06:13:01;;;;;;;12.65;6.28;;;;;;;7.79;56.10;102532.31;4949323;28;101429;-72
2024/01/30 06:15:29;;;;;;;15.32;6.65;;;;;;;7.87;56.10;102535.84;4950367;28;100685;-71
2024/01/30 06:17:56;;;;;;;11.95;6.15;;;;;;;7.91;56.08;102529.72;4951475;28;96859;-71
2024/01/30 06:20:22;;;;;;;13.20;6.63;;;;;;;7.87;56.20;102538.47;4950931;28;96891;-71
2024/01/30 06:22:50;;;;;;;18.00;6.75;;;;;;;7.80;56.44;102523.53;4948899;28;98936;-71
2024/01/30 06:25:16;;;;;;;13.95;5.75;;;;;;;7.82;56.00;102530.53;4951014;28;100983;-71
2024/01/30 06:27:43;;;;;;;11.85;6.60;;;;;;;7.96;55.83;102530.59;4949504;28;98307;-71
2024/01/30 06:30:10;;;;;;;16.48;6.55;;;;;;;7.74;56.45;102531.41;4949455;28;97633;-71
2024/01/30 06:32:37;;;;;;;12.68;6.35;;;;;;;7.91;56.00;102532.34;4945190;28;98969;-71
2024/01/30 06:35:04;;;;;;;13.48;6.40;;;;;;;7.84;56.50;102530.56;4951811;28;98800;-71
2024/01/30 06:37:30;;;;;;;14.95;7.22;;;;;;;8.06;55.60;102529.78;4949681;28;96829;-72
2024/01/30 06:39:58;;;;;;;14.60;6.72;;;;;;;8.08;55.59;102528.00;4950768;28;96855;-71
2024/01/30 06:42:24;;;;;;;18.25;7.57;;;;;;;8.07;55.17;102533.28;4947959;28;99073;-71
2024/01/30 06:44:51;;;;;;;14.75;6.60;;;;;;;8.00;55.65;102522.75;4952726;28;98853;-71
2024/01/30 06:47:17;;;;;;;14.70;7.00;;;;;;;8.22;54.97;102528.03;4950958;28;97920;-71
2024/01/30 06:49:45;;;;;;;13.40;7.10;;;;;;;7.97;55.33;102530.63;4951221;28;97871;-77
2024/01/30 06:52:11;;;;;;;13.90;6.95;;;;;;;7.97;55.70;102527.97;4950190;28;97722;-77
2024/01/30 06:54:38;;;;;;;12.27;6.32;;;;;;;8.07;55.34;102515.75;4952156;28;101379;-76
2024/01/30 06:57:08;;;;;;;17.55;7.57;;;;;;;8.20;54.83;102520.16;4948852;28;97220;-76
2024/01/30 06:59:35;;;;;;;21.90;6.80;;;;;;;8.15;54.86;102519.25;4951054;28;96827;-76
2024/01/30 07:02:02;;;;;;;16.20;7.00;;;;;;;8.12;55.38;102523.66;4947207;28;98249;-75
2024/01/30 07:04:28;;;;;;;18.33;7.28;;;;;;;8.28;54.80;102522.78;4956010;28;98776;-76
2024/01/30 07:06:54;;;;;;;13.18;7.28;;;;;;;8.21;54.95;102521.91;4956734;28;97093;-77
2024/01/30 07:09:21;;;;;;;13.63;6.75;;;;;;;8.34;54.63;102528.97;4949427;28;98468;-77
2024/01/30 07:11:50;;;;;;;25.50;8.40;;;;;;;8.06;55.17;102529.78;4950232;28;99194;-76
2024/01/30 07:14:18;;;;;;;17.02;7.30;;;;;;;8.09;55.52;102527.13;4954415;28;98917;-76
2024/01/30 07:16:44;;;;;;;18.80;7.68;;;;;;;8.19;54.99;102530.69;4948953;28;96874;-78
2024/01/30 07:19:10;;;;;;;17.63;7.10;;;;;;;8.11;55.27;102527.16;4945725;28;97271;-76
2024/01/30 07:21:38;;;;;;;16.60;7.93;;;;;;;8.12;55.46;102528.91;4949658;28;101525;-76
2024/01/30 07:24:05;;;;;;;22.40;7.43;;;;;;;8.40;54.79;102529.00;4948336;28;99145;-76
2024/01/30 07:26:31;;;;;;;15.70;7.43;;;;;;;8.42;54.39;102526.38;4949284;28;98089;-76
2024/01/30 07:28:57;;;;;;;19.65;7.70;;;;;;;8.26;54.83;102520.19;4948875;28;96916;-76
2024/01/30 07:31:25;;;;;;;18.92;7.28;;;;;;;8.32;55.01;102520.22;4948749;28;99091;-76
2024/01/30 07:33:51;;;;;;;18.73;8.10;;;;;;;8.25;55.04;102515.78;4944732;28;101687;-76
2024/01/30 07:36:18;;;;;;;17.80;7.70;;;;;;;8.42;54.70;102514.94;4943091;28;97187;-78
2024/01/30 07:38:44;;;;;;;19.15;7.90;;;;;;;8.35;54.93;102509.66;4936900;28;96913;-76
2024/01/30 07:41:11;;;;;;;18.15;7.97;;;;;;;8.65;53.93;102513.22;4933189;28;99700;-77
2024/01/30 07:43:39;;;;;;;18.38;8.13;;;;;;;8.54;54.22;102509.69;4932860;28;101643;-76
2024/01/30 07:46:06;;;;;;;16.83;8.10;;;;;;;8.42;54.03;102514.94;4937260;28;97655;-77
2024/01/30 07:48:34;;;;;;;22.80;8.75;;;;;;;8.51;54.33;102520.25;4948760;28;97012;-77
2024/01/30 07:51:02;;;;;;;18.13;8.18;;;;;;;8.70;53.57;102512.34;4950603;28;98274;-77
2024/01/30 07:53:29;;;;;;;19.27;7.28;;;;;;;8.55;53.65;102514.97;4942289;28;99266;-76
2024/01/30 07:55:55;;;;;;;19.50;7.97;;;;;;;8.54;53.69;102509.69;4953174;28;96952;-76
2024/01/30 07:58:23;;;;;;;19.75;8.05;;;;;;;8.62;53.72;102511.47;4949494;28;97185;-76
2024/01/30 08:00:51;;;;;;;17.40;7.80;;;;;;;8.61;53.75;102514.97;4947756;28;98229;-77
2024/01/30 08:03:18;;;;;;;22.67;8.30;;;;;;;8.45;54.02;102515.84;4949565;28;100222;-77
2024/01/30 08:05:45;;;;;;;18.48;8.05;;;;;;;8.47;54.15;102510.59;4947392;28;97076;-76
2024/01/30 08:08:12;;;;;;;22.83;8.95;;;;;;;8.52;54.01;102511.47;4950033;28;96936;-76
2024/01/30 08:10:38;;;;;;;18.67;8.23;;;;;;;8.65;53.69;102513.22;4948887;28;99101;-77
2024/01/30 08:13:05;;;;;;;24.13;8.15;;;;;;;8.68;53.52;102513.22;4948764;28;99257;-76
2024/01/30 08:15:31;;;;;;;15.48;8.50;;;;;;;8.62;53.69;102515.84;4948146;28;98459;-76
2024/01/30 08:17:57;;;;;;;24.40;8.38;;;;;;;8.66;53.76;102509.72;4950304;28;96903;-77
2024/01/30 08:20:24;;;;;;;19.15;7.90;;;;;;;8.92;52.72;102515.00;4949768;28;98899;-77
2024/01/30 08:22:52;;;;;;;16.45;8.15;;;;;;;8.96;52.82;102514.09;4945841;28;98865;-76
2024/01/30 08:25:18;;;;;;;21.83;8.73;;;;;;;9.03;52.21;102511.44;4948796;28;96991;-76
2024/01/30 08:27:45;;;;;;;22.17;8.75;;;;;;;9.13;52.05;102505.28;4949722;28;96847;-75
2024/01/30 08:30:12;;;;;;;17.33;8.70;;;;;;;9.11;51.77;102499.16;4943329;28;99419;-78
2024/01/30 08:32:38;;;;;;;28.85;8.55;;;;;;;9.13;51.98;102496.47;4947111;28;98765;-76
2024/01/30 08:35:06;;;;;;;17.23;7.50;;;;;;;9.04;52.50;102500.03;4941462;28;97062;-77
2024/01/30 08:37:32;;;;;;;21.98;8.88;;;;;;;9.04;52.24;102500.03;4945981;28;98635;-77
2024/01/30 08:40:01;;;;;;;21.52;8.30;;;;;;;9.16;51.98;102502.63;4948956;28;99344;-77
2024/01/30 08:42:28;;;;;;;17.58;8.90;;;;;;;9.23;51.49;102503.50;4948016;28;99949;-76
2024/01/30 08:44:55;;;;;;;18.40;8.70;;;;;;;9.33;51.73;102499.94;4947868;28;97489;-76
2024/01/30 08:47:21;;;;;;;17.05;8.68;;;;;;;9.27;51.25;102489.41;4948269;28;96856;-77
2024/01/30 08:49:48;;;;;;;25.90;8.50;;;;;;;9.47;51.21;102489.38;4945764;28;98991;-76
2024/01/30 08:52:14;;;;;;;30.08;9.38;;;;;;;9.73;50.74;102495.41;4949422;28;99001;-77
2024/01/30 08:54:41;;;;;;;32.65;9.05;;;;;;;9.82;49.93;102492.75;4953067;28;98745;-77
2024/01/30 08:57:08;;;;;;;23.95;11.88;;;;;;;9.94;49.79;102494.44;4952135;28;96878;-78
2024/01/30 08:59:35;;;;;;;16.13;7.38;;;;;;;10.18;48.96;102491.69;4946779;28;97840;-77
2024/01/30 09:02:02;;;;;;;17.85;8.52;;;;;;;10.12;48.71;102490.81;4949364;28;98976;-77
2024/01/30 09:04:28;;;;;;;30.20;8.40;;;;;;;10.39;48.35;102493.31;4953361;28;97186;-77
2024/01/30 09:06:55;;;;;;;15.18;7.70;;;;;;;10.32;48.00;102492.47;4951732;28;96891;-77
2024/01/30 09:09:21;;;;;;;14.18;6.95;;;;;;;10.36;47.97;102494.22;4948628;28;99054;-76
2024/01/30 09:11:48;;;;;;;13.90;7.10;;;;;;;10.30;47.79;102483.72;4941599;28;98795;-77
2024/01/30 09:14:15;;;;;;;36.40;8.70;;;;;;;10.31;47.56;102489.84;4946546;28;97757;-77
2024/01/30 09:16:42;;;;;;;15.32;7.55;;;;;;;10.25;47.93;102488.13;4946265;28;97008;-77
2024/01/30 09:19:08;;;;;;;18.83;7.40;;;;;;;10.41;47.69;102490.66;4945397;28;102251;-77
2024/01/30 09:21:34;;;;;;;17.30;7.30;;;;;;;10.55;47.07;102489.69;4947492;28;98869;-76
2024/01/30 09:24:03;;;;;;;18.20;8.20;;;;;;;10.58;47.15;102494.94;4950183;28;98727;-76
2024/01/30 09:26:30;;;;;;;15.88;7.30;;;;;;;10.65;46.98;102491.34;4949966;28;97249;-76
2024/01/30 09:28:56;;;;;;;26.75;8.10;;;;;;;10.67;46.53;102492.22;4951518;28;100056;-76
2024/01/30 09:31:24;;;;;;;16.83;8.38;;;;;;;10.72;46.75;102495.69;4949745;28;99452;-76
2024/01/30 09:33:51;;;;;;;14.70;7.25;;;;;;;10.94;46.28;102492.88;4950603;28;96905;-77
2024/01/30 09:36:19;;;;;;;30.52;7.47;;;;;;;10.93;46.29;102496.41;4946525;28;97059;-77
2024/01/30 09:38:46;;;;;;;37.03;8.23;;;;;;;10.89;46.15;102492.94;4942486;28;99021;-78
2024/01/30 09:41:12;;;;;;;15.13;7.50;;;;;;;10.85;45.73;102507.03;4944323;28;101851;-77
2024/01/30 09:43:39;;;;;;;33.00;9.60;;;;;;;10.90;46.04;102497.28;4951360;28;98889;-77
2024/01/30 09:46:06;;;;;;;18.38;7.95;;;;;;;11.00;46.30;102490.16;4947469;28;96857;-77
2024/01/30 09:48:35;;;;;;;22.23;8.18;;;;;;;10.86;45.84;102485.00;4948111;28;99576;-77
2024/01/30 09:51:02;;;;;;;15.93;7.65;;;;;;;10.94;45.83;102484.94;4942797;28;98881;-76
2024/01/30 09:53:28;;;;;;;15.65;6.90;;;;;;;10.96;46.01;102486.66;4945160;28;98401;-78
2024/01/30 09:55:55;;;;;;;13.80;7.45;;;;;;;11.17;44.83;102489.09;4940752;28;98085;-77
2024/01/30 09:58:21;;;;;;;15.35;7.22;;;;;;;11.46;44.54;102488.78;4950253;28;99470;-76
2024/01/30 10:00:48;;;;;;;25.30;8.32;;;;;;;11.43;44.28;102477.34;4948974;28;97612;-77
2024/01/30 10:03:15;;;;;;;16.35;7.45;;;;;;;11.71;43.83;102477.88;4944813;28;98146;-76
2024/01/30 10:05:51;;;;;;;13.32;7.70;;;;;;;11.61;43.60;102468.31;4943482;28;98456;-77
2024/01/30 10:08:19;;;;;;;14.93;7.72;;;;;;;11.58;43.97;102482.47;4946082;28;98568;-77
2024/01/30 10:10:46;;;;;;;14.90;6.90;;;;;;;11.60;43.52;102480.69;4946708;28;98866;-78
2024/01/30 10:13:12;;;;;;;15.63;6.88;;;;;;;11.63;43.02;102479.75;4947813;28;97087;-77
2024/01/30 10:15:40;;;;;;;15.05;7.05;;;;;;;11.69;42.48;102474.38;4946051;28;98093;-76
2024/01/30 10:18:07;;;;;;;14.65;6.75;;;;;;;11.57;42.53;102464.81;4949715;28;100653;-77
2024/01/30 10:20:33;;;;;;;16.17;6.93;;;;;;;11.67;42.46;102460.31;4949862;28;99226;-76
2024/01/30 10:23:01;;;;;;;14.65;6.68;;;;;;;11.69;42.59;102462.00;4950546;28;96891;-76
2024/01/30 10:25:28;;;;;;;13.98;6.93;;;;;;;11.42;42.91;102465.88;4950631;28;97734;-78
2024/01/30 10:27:55;;;;;;;16.95;6.53;;;;;;;11.84;41.99;102461.84;4946281;28;98900;-77
2024/01/30 10:30:21;;;;;;;12.60;6.53;;;;;;;11.75;42.00;102461.97;4944138;28;98744;-77
2024/01/30 10:32:48;;;;;;;11.18;6.22;;;;;;;11.64;42.10;102455.91;4947940;28;97218;-77
2024/01/30 10:35:14;;;;;;;12.50;6.22;;;;;;;11.65;42.00;102459.44;4946777;28;97982;-77
2024/01/30 10:37:44;;;;;;;15.27;6.13;;;;;;;11.57;41.70;102455.09;4951497;28;98920;-76
2024/01/30 10:40:15;;;;;;;13.50;6.47;;;;;;;11.61;42.11;102452.44;4947027;28;97700;-77
2024/01/30 10:42:43;;;;;;;13.35;6.35;;;;;;;11.36;42.13;102457.13;4946174;28;97099;-77
2024/01/30 10:45:12;;;;;;;16.05;6.50;;;;;;;11.44;42.52;102453.50;4947007;28;96982;-77
2024/01/30 10:47:40;;;;;;;16.50;6.25;;;;;;;11.36;42.03;102459.78;4946475;28;99711;-76
2024/01/30 10:50:10;;;;;;;13.00;6.20;;;;;;;11.50;42.20;102453.44;4945472;28;100861;-77
2024/01/30 10:52:37;;;;;;;15.95;6.25;;;;;;;11.64;41.78;102449.72;4945556;28;97146;-76
2024/01/30 10:55:05;;;;;;;17.25;6.88;;;;;;;12.05;41.37;102458.03;4948516;28;98703;-76
2024/01/30 10:57:35;;;;;;;14.13;6.22;;;;;;;11.96;40.85;102452.84;4947238;28;98386;-78
2024/01/30 11:00:05;;;;;;;10.25;6.07;;;;;;;12.30;40.55;102447.94;4945828;28;97503;-76
2024/01/30 11:02:33;;;;;;;15.00;6.00;;;;;;;12.31;40.37;102455.00;4945268;28;97241;-76
2024/01/30 11:05:00;;;;;;;14.25;5.70;;;;;;;12.17;40.50;102449.91;4948542;28;97033;-76
2024/01/30 11:07:28;;;;;;;21.58;6.47;;;;;;;12.17;40.25;102452.53;4949267;28;97742;-76
2024/01/30 11:10:01;;;;;;;12.25;6.15;;;;;;;12.24;40.29;102456.84;4945793;28;97768;-77
2024/01/30 11:12:30;;;;;;;15.65;6.53;;;;;;;12.10;40.69;102455.31;4948323;28;97255;-76
2024/01/30 11:15:05;;;;;;;21.63;6.93;;;;;;;12.10;40.61;102445.59;4947888;28;97160;-76
2024/01/30 11:17:46;;;;;;;12.02;5.97;;;;;;;12.13;40.56;102452.63;4942633;28;99341;-77
2024/01/30 11:20:15;;;;;;;23.13;7.05;;;;;;;12.09;40.51;102442.94;4944192;28;98756;-76
2024/01/30 11:22:43;;;;;;;11.32;5.85;;;;;;;11.90;40.75;102440.56;4942442;28;97179;-76